Time,TemperatureF,DewpointF,PressureIn,WindDirection,WindDirectionDegrees,WindSpeedMPH,WindSpeedGustMPH,Humidity,HourlyPrecipIn,Conditions,Clouds,dailyrainin,SoftwareType,DateUTC
2013-06-22 00:00:00,70.0,55.0,29.18,SE,135,0.0,13.0,59,0.00,,,0.00,Weather View 32 v70,2013-06-22 04:00:00,
2013-06-22 00:05:00,70.0,55.0,29.18,South,180,0.0,13.0,59,0.00,,,0.00,Weather View 32 v70,2013-06-22 04:05:00,
2013-06-22 00:10:00,69.0,55.4,29.18,SW,225,0.0,13.0,62,0.00,,,0.00,Weather View 32 v70,2013-06-22 04:10:00,
2013-06-22 00:15:00,68.0,54.5,29.19,SW,225,0.0,13.0,62,0.00,,,0.00,Weather View 32 v70,2013-06-22 04:15:00,
2013-06-22 00:17:00,68.0,54.5,29.19,SW,225,0.0,13.0,62,0.00,,,0.00,Weather View 32 v70,2013-06-22 04:17:00,
2013-06-22 00:20:00,68.0,52.6,29.19,SW,225,0.0,13.0,58,0.00,,,0.00,Weather View 32 v70,2013-06-22 04:20:00,
2013-06-22 00:25:00,69.0,55.0,29.19,WSW,247,0.0,10.0,61,0.00,,,0.00,Weather View 32 v70,2013-06-22 04:25:00,
2013-06-22 00:30:00,69.0,55.4,29.19,SW,225,0.0,8.0,62,0.00,,,0.00,Weather View 32 v70,2013-06-22 04:30:00,
2013-06-22 00:35:00,68.0,54.9,29.19,SSW,202,0.0,8.0,63,0.00,,,0.00,Weather View 32 v70,2013-06-22 04:35:00,
2013-06-22 00:40:00,68.0,54.5,29.19,SSW,202,0.0,8.0,62,0.00,,,0.00,Weather View 32 v70,2013-06-22 04:40:00,
2013-06-22 00:45:00,68.0,55.3,29.19,SSW,202,0.0,8.0,64,0.00,,,0.00,Weather View 32 v70,2013-06-22 04:45:00,
2013-06-22 00:55:00,68.0,55.8,29.19,SE,135,0.0,8.0,65,0.00,,,0.00,Weather View 32 v70,2013-06-22 04:55:00,
2013-06-22 01:00:00,68.0,55.8,29.19,SE,135,5.0,6.0,65,0.00,,,0.00,Weather View 32 v70,2013-06-22 05:00:00,
2013-06-22 01:05:00,69.0,55.0,29.18,ESE,112,6.0,8.0,61,0.00,,,0.00,Weather View 32 v70,2013-06-22 05:05:00,
2013-06-22 01:10:00,68.0,53.6,29.18,SSE,157,0.0,8.0,60,0.00,,,0.00,Weather View 32 v70,2013-06-22 05:10:00,
2013-06-22 01:15:00,69.0,53.6,29.17,SE,135,6.0,8.0,58,0.00,,,0.00,Weather View 32 v70,2013-06-22 05:15:00,
2013-06-22 01:25:00,68.0,55.3,29.17,ESE,112,5.0,9.0,64,0.00,,,0.00,Weather View 32 v70,2013-06-22 05:25:00,
2013-06-22 01:30:00,67.0,55.2,29.17,SE,135,5.0,9.0,66,0.00,,,0.00,Weather View 32 v70,2013-06-22 05:30:00,
2013-06-22 01:35:00,67.0,55.2,29.17,ESE,112,6.0,9.0,66,0.00,,,0.00,Weather View 32 v70,2013-06-22 05:35:00,
2013-06-22 01:40:00,67.0,56.1,29.17,ESE,112,3.0,9.0,68,0.00,,,0.00,Weather View 32 v70,2013-06-22 05:40:00,
2013-06-22 01:45:00,67.0,55.6,29.17,SSE,157,3.0,9.0,67,0.00,,,0.00,Weather View 32 v70,2013-06-22 05:45:00,
2013-06-22 01:50:00,67.0,55.6,29.17,WNW,292,0.0,9.0,67,0.00,,,0.00,Weather View 32 v70,2013-06-22 05:50:00,
2013-06-22 02:00:00,66.0,56.3,29.18,WSW,247,0.0,9.0,71,0.00,,,0.00,Weather View 32 v70,2013-06-22 06:00:00,
2013-06-22 02:05:00,65.0,55.3,29.18,SW,225,0.0,9.0,71,0.00,,,0.00,Weather View 32 v70,2013-06-22 06:05:00,
2013-06-22 02:10:00,66.0,58.2,29.18,SSW,202,0.0,9.0,76,0.00,,,0.00,Weather View 32 v70,2013-06-22 06:10:00,
2013-06-22 02:15:00,66.0,57.4,29.18,SE,135,0.0,9.0,74,0.00,,,0.00,Weather View 32 v70,2013-06-22 06:15:00,
2013-06-22 02:20:00,66.0,57.8,29.18,West,270,3.0,9.0,75,0.00,,,0.00,Weather View 32 v70,2013-06-22 06:20:00,
2013-06-22 02:25:00,67.0,58.4,29.17,South,180,0.0,9.0,74,0.00,,,0.00,Weather View 32 v70,2013-06-22 06:25:00,
2013-06-22 02:30:00,66.0,57.1,29.17,WNW,292,0.0,9.0,73,0.00,,,0.00,Weather View 32 v70,2013-06-22 06:30:00,
2013-06-22 02:35:00,66.0,56.7,29.17,SSE,157,0.0,9.0,72,0.00,,,0.00,Weather View 32 v70,2013-06-22 06:35:00,
2013-06-22 02:40:00,66.0,57.8,29.18,SSW,202,0.0,8.0,75,0.00,,,0.00,Weather View 32 v70,2013-06-22 06:40:00,
2013-06-22 02:45:00,66.0,59.6,29.18,WNW,292,0.0,6.0,80,0.00,,,0.00,Weather View 32 v70,2013-06-22 06:45:00,
2013-06-22 02:50:00,66.0,61.0,29.18,WNW,292,0.0,7.0,84,0.00,,,0.00,Weather View 32 v70,2013-06-22 06:50:00,
2013-06-22 02:55:00,67.0,63.0,29.17,WSW,247,0.0,7.0,87,0.00,,,0.00,Weather View 32 v70,2013-06-22 06:55:00,
2013-06-22 03:00:00,67.0,63.6,29.17,West,270,0.0,7.0,89,0.00,,,0.00,Weather View 32 v70,2013-06-22 07:00:00,
2013-06-22 03:05:00,67.0,65.8,29.17,SW,225,2.0,7.0,96,0.00,,,0.00,Weather View 32 v70,2013-06-22 07:05:00,
2013-06-22 03:10:00,67.0,66.1,29.17,SSW,202,0.0,7.0,97,0.00,,,0.00,Weather View 32 v70,2013-06-22 07:10:00,
2013-06-22 03:15:00,66.0,65.1,29.17,WSW,247,1.0,7.0,97,0.00,,,0.00,Weather View 32 v70,2013-06-22 07:15:00,
2013-06-22 03:20:00,66.0,65.7,29.17,West,270,0.0,7.0,99,0.00,,,0.00,Weather View 32 v70,2013-06-22 07:20:00,
2013-06-22 03:25:00,66.0,66.0,29.18,SW,225,0.0,7.0,100,0.00,,,0.00,Weather View 32 v70,2013-06-22 07:25:00,
2013-06-22 03:30:00,66.0,66.0,29.17,SW,225,0.0,8.0,100,0.00,,,0.00,Weather View 32 v70,2013-06-22 07:30:00,
2013-06-22 03:35:00,67.0,67.0,29.18,SSE,157,2.0,8.0,100,0.00,,,0.00,Weather View 32 v70,2013-06-22 07:35:00,
2013-06-22 03:40:00,67.0,67.0,29.18,SE,135,2.0,8.0,100,0.00,,,0.00,Weather View 32 v70,2013-06-22 07:40:00,
2013-06-22 03:45:00,67.0,67.0,29.18,South,180,0.0,8.0,100,0.00,,,0.00,Weather View 32 v70,2013-06-22 07:45:00,
2013-06-22 03:55:00,66.0,66.0,29.18,SE,135,0.0,8.0,100,0.00,,,0.00,Weather View 32 v70,2013-06-22 07:55:00,
2013-06-22 04:00:00,66.0,66.0,29.19,SE,135,0.0,8.0,100,0.00,,,0.00,Weather View 32 v70,2013-06-22 08:00:00,
2013-06-22 04:05:00,66.0,66.0,29.19,SE,135,0.0,8.0,100,0.00,,,0.00,Weather View 32 v70,2013-06-22 08:05:00,
2013-06-22 04:10:00,66.0,66.0,29.18,SSE,157,0.0,8.0,100,0.00,,,0.00,Weather View 32 v70,2013-06-22 08:10:00,
2013-06-22 04:19:00,66.0,66.0,29.18,SE,135,0.0,8.0,100,0.00,,,0.00,Weather View 32 v70,2013-06-22 08:19:00,
2013-06-22 04:25:00,66.0,66.0,29.18,SE,135,3.0,8.0,100,0.00,,,0.00,Weather View 32 v70,2013-06-22 08:25:00,
2013-06-22 04:35:00,65.0,65.0,29.17,SE,135,0.0,7.0,100,0.00,,,0.00,Weather View 32 v70,2013-06-22 08:35:00,
2013-06-22 04:40:00,65.0,65.0,29.18,SE,135,0.0,7.0,100,0.00,,,0.00,Weather View 32 v70,2013-06-22 08:40:00,
2013-06-22 04:45:00,65.0,65.0,29.17,SE,135,0.0,7.0,100,0.00,,,0.00,Weather View 32 v70,2013-06-22 08:45:00,
2013-06-22 04:50:00,65.0,65.0,29.17,South,180,0.0,7.0,100,0.00,,,0.00,Weather View 32 v70,2013-06-22 08:50:00,
2013-06-22 04:55:00,65.0,65.0,29.17,SE,135,0.0,7.0,100,0.00,,,0.00,Weather View 32 v70,2013-06-22 08:55:00,
2013-06-22 05:00:00,65.0,65.0,29.17,SE,135,0.0,7.0,100,0.00,,,0.00,Weather View 32 v70,2013-06-22 09:00:00,
2013-06-22 05:05:00,65.0,65.0,29.17,SE,135,7.0,8.0,100,0.00,,,0.00,Weather View 32 v70,2013-06-22 09:05:00,
2013-06-22 05:10:00,65.0,65.0,29.17,South,180,0.0,8.0,100,0.00,,,0.00,Weather View 32 v70,2013-06-22 09:10:00,
2013-06-22 05:20:00,65.0,65.0,29.17,SE,135,0.0,8.0,100,0.00,,,0.00,Weather View 32 v70,2013-06-22 09:20:00,
2013-06-22 05:30:00,65.0,65.0,29.17,SSE,157,0.0,8.0,100,0.00,,,0.00,Weather View 32 v70,2013-06-22 09:30:00,
2013-06-22 05:35:00,65.0,65.0,29.17,SSE,157,0.0,8.0,100,0.00,,,0.00,Weather View 32 v70,2013-06-22 09:35:00,
2013-06-22 05:40:00,65.0,65.0,29.17,SE,135,0.0,8.0,100,0.00,,,0.00,Weather View 32 v70,2013-06-22 09:40:00,
2013-06-22 05:45:00,65.0,65.0,29.18,SSE,157,1.0,8.0,100,0.00,,,0.00,Weather View 32 v70,2013-06-22 09:45:00,
2013-06-22 05:50:00,65.0,65.0,29.18,SSE,157,0.0,8.0,100,0.00,,,0.00,Weather View 32 v70,2013-06-22 09:50:00,
2013-06-22 06:00:00,64.0,64.0,29.18,SE,135,4.0,8.0,100,0.00,,,0.00,Weather View 32 v70,2013-06-22 10:00:00,
2013-06-22 06:10:00,64.0,64.0,29.18,SE,135,5.0,11.0,100,0.00,,,0.00,Weather View 32 v70,2013-06-22 10:10:00,
2013-06-22 06:15:00,64.0,64.0,29.18,SSE,157,3.0,11.0,100,0.00,,,0.00,Weather View 32 v70,2013-06-22 10:15:00,
2013-06-22 06:20:00,64.0,64.0,29.17,ESE,112,7.0,11.0,100,0.00,,,0.00,Weather View 32 v70,2013-06-22 10:20:00,
2013-06-22 06:25:00,64.0,64.0,29.17,SSE,157,7.0,11.0,100,0.00,,,0.00,Weather View 32 v70,2013-06-22 10:25:00,
2013-06-22 06:30:00,64.0,64.0,29.17,SE,135,6.0,11.0,100,0.00,,,0.00,Weather View 32 v70,2013-06-22 10:30:00,
2013-06-22 06:35:00,64.0,64.0,29.17,SE,135,0.0,11.0,100,0.00,,,0.00,Weather View 32 v70,2013-06-22 10:35:00,
2013-06-22 06:40:00,65.0,65.0,29.17,WSW,247,0.0,11.0,100,0.00,,,0.00,Weather View 32 v70,2013-06-22 10:40:00,
2013-06-22 06:50:00,65.0,65.0,29.17,SE,135,2.0,11.0,100,0.00,,,0.00,Weather View 32 v70,2013-06-22 10:50:00,
2013-06-22 06:55:00,65.0,65.0,29.16,SE,135,3.0,11.0,100,0.00,,,0.00,Weather View 32 v70,2013-06-22 10:55:00,
2013-06-22 07:00:00,65.0,65.0,29.17,SE,135,3.0,11.0,100,0.00,,,0.00,Weather View 32 v70,2013-06-22 11:00:00,
2013-06-22 07:05:00,65.0,65.0,29.17,SE,135,0.0,11.0,100,0.00,,,0.00,Weather View 32 v70,2013-06-22 11:05:00,
2013-06-22 07:10:00,65.0,65.0,29.17,SE,135,7.0,10.0,100,0.00,,,0.00,Weather View 32 v70,2013-06-22 11:10:00,
2013-06-22 07:15:00,65.0,65.0,29.16,SE,135,10.0,10.0,100,0.00,,,0.00,Weather View 32 v70,2013-06-22 11:15:00,
2013-06-22 07:20:00,64.0,64.0,29.16,ESE,112,3.0,10.0,100,0.00,,,0.00,Weather View 32 v70,2013-06-22 11:20:00,
2013-06-22 07:30:00,65.0,65.0,29.16,SSE,157,1.0,10.0,100,0.00,,,0.00,Weather View 32 v70,2013-06-22 11:30:00,
2013-06-22 07:35:00,65.0,65.0,29.16,East,90,0.0,10.0,100,0.00,,,0.00,Weather View 32 v70,2013-06-22 11:35:00,
2013-06-22 07:40:00,66.0,66.0,29.16,ESE,112,1.0,10.0,100,0.00,,,0.00,Weather View 32 v70,2013-06-22 11:40:00,
2013-06-22 07:45:00,66.0,66.0,29.16,East,90,2.0,10.0,100,0.00,,,0.00,Weather View 32 v70,2013-06-22 11:45:00,
2013-06-22 07:50:00,67.0,67.0,29.15,ESE,112,5.0,10.0,100,0.00,,,0.00,Weather View 32 v70,2013-06-22 11:50:00,
2013-06-22 07:55:00,67.0,67.0,29.16,SE,135,5.0,10.0,100,0.00,,,0.00,Weather View 32 v70,2013-06-22 11:55:00,
2013-06-22 08:00:00,67.0,67.0,29.16,SE,135,4.0,10.0,100,0.00,,,0.00,Weather View 32 v70,2013-06-22 12:00:00,
2013-06-22 08:10:00,68.0,68.0,29.16,ESE,112,0.0,10.0,100,0.00,,,0.00,Weather View 32 v70,2013-06-22 12:10:00,
2013-06-22 08:15:00,69.0,69.0,29.16,South,180,0.0,10.0,100,0.00,,,0.00,Weather View 32 v70,2013-06-22 12:15:00,
2013-06-22 08:20:00,69.0,68.7,29.16,WNW,292,0.0,8.0,99,0.00,,,0.00,Weather View 32 v70,2013-06-22 12:20:00,
2013-06-22 08:25:00,69.0,68.4,29.16,NW,315,0.0,8.0,98,0.00,,,0.00,Weather View 32 v70,2013-06-22 12:25:00,
2013-06-22 08:30:00,70.0,68.5,29.15,ESE,112,2.0,8.0,95,0.00,,,0.00,Weather View 32 v70,2013-06-22 12:30:00,
2013-06-22 08:35:00,70.0,68.5,29.15,ENE,67,6.0,8.0,95,0.00,,,0.00,Weather View 32 v70,2013-06-22 12:35:00,
2013-06-22 08:40:00,69.0,68.1,29.16,SE,135,7.0,9.0,97,0.00,,,0.00,Weather View 32 v70,2013-06-22 12:40:00,
2013-06-22 08:45:00,69.0,69.0,29.16,SE,135,0.0,9.0,100,0.00,,,0.00,Weather View 32 v70,2013-06-22 12:45:00,
2013-06-22 08:50:00,70.0,69.7,29.16,East,90,2.0,9.0,99,0.00,,,0.00,Weather View 32 v70,2013-06-22 12:50:00,
2013-06-22 09:00:00,71.0,69.5,29.16,SE,135,3.0,9.0,95,0.00,,,0.00,Weather View 32 v70,2013-06-22 13:00:00,
2013-06-22 09:05:00,72.0,69.9,29.15,SSE,157,3.0,9.0,93,0.00,,,0.00,Weather View 32 v70,2013-06-22 13:05:00,
2013-06-22 09:10:00,71.0,68.9,29.15,SE,135,1.0,9.0,93,0.00,,,0.00,Weather View 32 v70,2013-06-22 13:10:00,
2013-06-22 09:15:00,72.0,69.9,29.15,ENE,67,0.0,9.0,93,0.00,,,0.00,Weather View 32 v70,2013-06-22 13:15:00,
2013-06-22 09:20:00,73.0,70.2,29.15,ENE,67,0.0,9.0,91,0.00,,,0.00,Weather View 32 v70,2013-06-22 13:20:00,
2013-06-22 09:30:00,73.0,70.5,29.15,ESE,112,0.0,9.0,92,0.00,,,0.00,Weather View 32 v70,2013-06-22 13:30:00,
2013-06-22 09:35:00,74.0,70.5,29.15,South,180,0.0,9.0,89,0.00,,,0.00,Weather View 32 v70,2013-06-22 13:35:00,
2013-06-22 09:40:00,74.0,69.2,29.14,ENE,67,1.0,8.0,85,0.00,,,0.00,Weather View 32 v70,2013-06-22 13:40:00,
2013-06-22 09:45:00,74.0,70.2,29.14,SE,135,0.0,7.0,88,0.00,,,0.00,Weather View 32 v70,2013-06-22 13:45:00,
2013-06-22 09:50:00,75.0,70.8,29.15,East,90,0.0,7.0,87,0.00,,,0.00,Weather View 32 v70,2013-06-22 13:50:00,
2013-06-22 09:55:00,74.0,69.9,29.14,SE,135,8.0,9.0,87,0.00,,,0.00,Weather View 32 v70,2013-06-22 13:55:00,
2013-06-22 10:00:00,74.0,70.9,29.15,ESE,112,3.0,9.0,90,0.00,,,0.00,Weather View 32 v70,2013-06-22 14:00:00,
2013-06-22 10:05:00,75.0,70.8,29.15,SE,135,0.0,9.0,87,0.00,,,0.00,Weather View 32 v70,2013-06-22 14:05:00,
2013-06-22 10:10:00,76.0,71.8,29.14,ESE,112,7.0,9.0,87,0.00,,,0.00,Weather View 32 v70,2013-06-22 14:10:00,
2013-06-22 10:15:00,74.0,70.5,29.14,SE,135,0.0,9.0,89,0.00,,,0.00,Weather View 32 v70,2013-06-22 14:15:00,
2013-06-22 10:23:00,76.0,71.8,29.14,SSE,157,0.0,9.0,87,0.00,,,0.00,Weather View 32 v70,2013-06-22 14:23:00,
2013-06-22 10:30:00,76.0,71.5,29.15,NE,45,4.0,9.0,86,0.00,,,0.00,Weather View 32 v70,2013-06-22 14:30:00,
2013-06-22 10:35:00,77.0,70.3,29.13,ENE,67,6.0,9.0,80,0.00,,,0.00,Weather View 32 v70,2013-06-22 14:35:00,
2013-06-22 10:40:00,77.0,70.0,29.13,ESE,112,7.0,9.0,79,0.00,,,0.00,Weather View 32 v70,2013-06-22 14:40:00,
2013-06-22 10:45:00,77.0,70.0,29.14,East,90,5.0,9.0,79,0.00,,,0.00,Weather View 32 v70,2013-06-22 14:45:00,
2013-06-22 10:50:00,76.0,70.1,29.15,ENE,67,0.0,11.0,82,0.00,,,0.00,Weather View 32 v70,2013-06-22 14:50:00,
2013-06-22 10:55:00,76.0,69.0,29.15,SSE,157,0.0,11.0,79,0.00,,,0.00,Weather View 32 v70,2013-06-22 14:55:00,
2013-06-22 11:00:00,77.0,68.4,29.15,West,270,0.0,11.0,75,0.00,,,0.00,Weather View 32 v70,2013-06-22 15:00:00,
2013-06-22 11:05:00,78.0,68.2,29.13,ESE,112,5.0,11.0,72,0.00,,,0.00,Weather View 32 v70,2013-06-22 15:05:00,
2013-06-22 11:10:00,78.0,69.8,29.13,SSE,157,0.0,11.0,76,0.00,,,0.00,Weather View 32 v70,2013-06-22 15:10:00,
2013-06-22 11:15:00,79.0,68.8,29.13,NW,315,0.0,11.0,71,0.00,,,0.00,Weather View 32 v70,2013-06-22 15:15:00,
2013-06-22 11:24:00,80.0,69.7,29.13,SSE,157,6.0,11.0,71,0.00,,,0.00,Weather View 32 v70,2013-06-22 15:24:00,
2013-06-22 11:30:00,77.0,70.3,29.13,SE,135,5.0,12.0,80,0.00,,,0.00,Weather View 32 v70,2013-06-22 15:30:00,
2013-06-22 11:35:00,78.0,70.2,29.14,East,90,0.0,12.0,77,0.00,,,0.00,Weather View 32 v70,2013-06-22 15:35:00,
2013-06-22 11:40:00,78.0,70.6,29.13,NE,45,0.0,12.0,78,0.00,,,0.00,Weather View 32 v70,2013-06-22 15:40:00,
2013-06-22 11:45:00,79.0,69.2,29.13,ESE,112,0.0,12.0,72,0.00,,,0.00,Weather View 32 v70,2013-06-22 15:45:00,
2013-06-22 11:50:00,79.0,70.0,29.13,South,180,0.0,12.0,74,0.00,,,0.00,Weather View 32 v70,2013-06-22 15:50:00,
2013-06-22 11:55:00,80.0,69.3,29.12,SE,135,7.0,12.0,70,0.00,,,0.00,Weather View 32 v70,2013-06-22 15:55:00,
2013-06-22 12:00:00,78.0,68.6,29.13,ESE,112,4.0,12.0,73,0.00,,,0.00,Weather View 32 v70,2013-06-22 16:00:00,
2013-06-22 12:05:00,78.0,69.8,29.13,SSE,157,0.0,12.0,76,0.00,,,0.00,Weather View 32 v70,2013-06-22 16:05:00,
2013-06-22 12:15:00,79.0,68.8,29.12,ESE,112,3.0,12.0,71,0.00,,,0.00,Weather View 32 v70,2013-06-22 16:15:00,
2013-06-22 12:20:00,80.0,69.7,29.12,NW,315,0.0,12.0,71,0.00,,,0.00,Weather View 32 v70,2013-06-22 16:20:00,
2013-06-22 12:25:00,80.0,70.1,29.12,SSE,157,0.0,12.0,72,0.00,,,0.00,Weather View 32 v70,2013-06-22 16:25:00,
2013-06-22 12:35:00,81.0,68.5,29.12,SW,225,0.0,12.0,66,0.00,,,0.00,Weather View 32 v70,2013-06-22 16:35:00,
2013-06-22 12:40:00,81.0,64.8,29.12,West,270,7.0,12.0,58,0.00,,,0.00,Weather View 32 v70,2013-06-22 16:40:00,
2013-06-22 12:45:00,81.0,64.3,29.11,WSW,247,1.0,12.0,57,0.00,,,0.00,Weather View 32 v70,2013-06-22 16:45:00,
2013-06-22 12:50:00,81.0,66.7,29.11,West,270,6.0,12.0,62,0.00,,,0.00,Weather View 32 v70,2013-06-22 16:50:00,
2013-06-22 12:55:00,81.0,63.8,29.11,WNW,292,0.0,12.0,56,0.00,,,0.00,Weather View 32 v70,2013-06-22 16:55:00,
2013-06-22 13:00:00,81.0,62.2,29.11,West,270,3.0,12.0,53,0.00,,,0.00,Weather View 32 v70,2013-06-22 17:00:00,
2013-06-22 13:05:00,81.0,64.3,29.11,WNW,292,7.0,10.0,57,0.00,,,0.00,Weather View 32 v70,2013-06-22 17:05:00,
2013-06-22 13:15:00,82.0,65.7,29.10,SW,225,4.0,10.0,58,0.00,,,0.00,Weather View 32 v70,2013-06-22 17:15:00,
2013-06-22 13:20:00,83.0,62.9,29.09,SE,135,8.0,10.0,51,0.00,,,0.00,Weather View 32 v70,2013-06-22 17:20:00,
2013-06-22 13:25:00,84.0,67.1,29.09,NNW,337,0.0,10.0,57,0.00,,,0.00,Weather View 32 v70,2013-06-22 17:25:00,
2013-06-22 13:35:00,83.0,62.4,29.09,West,270,0.0,10.0,50,0.00,,,0.00,Weather View 32 v70,2013-06-22 17:35:00,
2013-06-22 13:40:00,84.0,66.0,29.08,WSW,247,1.0,9.0,55,0.00,,,0.00,Weather View 32 v70,2013-06-22 17:40:00,
2013-06-22 13:45:00,84.0,63.3,29.08,South,180,7.0,9.0,50,0.00,,,0.00,Weather View 32 v70,2013-06-22 17:45:00,
2013-06-22 13:50:00,83.0,61.8,29.08,West,270,2.0,9.0,49,0.00,,,0.00,Weather View 32 v70,2013-06-22 17:50:00,
2013-06-22 13:55:00,84.0,62.7,29.09,SW,225,0.0,9.0,49,0.00,,,0.00,Weather View 32 v70,2013-06-22 17:55:00,
2013-06-22 14:00:00,84.0,59.7,29.07,SE,135,0.0,9.0,44,0.00,,,0.00,Weather View 32 v70,2013-06-22 18:00:00,
2013-06-22 14:05:00,85.0,61.2,29.07,NW,315,0.0,9.0,45,0.00,,,0.00,Weather View 32 v70,2013-06-22 18:05:00,
2013-06-22 14:10:00,86.0,64.5,29.07,SSE,157,0.0,9.0,49,0.00,,,0.00,Weather View 32 v70,2013-06-22 18:10:00,
2013-06-22 14:20:00,86.0,63.9,29.06,NW,315,4.0,9.0,48,0.00,,,0.00,Weather View 32 v70,2013-06-22 18:20:00,
2013-06-22 14:25:00,85.0,64.8,29.06,ENE,67,0.0,9.0,51,0.00,,,0.00,Weather View 32 v70,2013-06-22 18:25:00,
2013-06-22 14:30:00,86.0,65.7,29.06,South,180,0.0,9.0,51,0.00,,,0.00,Weather View 32 v70,2013-06-22 18:30:00,
2013-06-22 14:35:00,87.0,67.2,29.06,SE,135,5.0,9.0,52,0.00,,,0.00,Weather View 32 v70,2013-06-22 18:35:00,
2013-06-22 14:40:00,86.0,68.4,29.05,SE,135,0.0,9.0,56,0.00,,,0.00,Weather View 32 v70,2013-06-22 18:40:00,
2013-06-22 14:45:00,86.0,67.3,29.05,SE,135,4.0,9.0,54,0.00,,,0.00,Weather View 32 v70,2013-06-22 18:45:00,
2013-06-22 14:50:00,85.0,67.5,29.05,ENE,67,0.0,9.0,56,0.00,,,0.00,Weather View 32 v70,2013-06-22 18:50:00,
2013-06-22 14:55:00,85.0,66.4,29.05,South,180,0.0,9.0,54,0.00,,,0.00,Weather View 32 v70,2013-06-22 18:55:00,
2013-06-22 15:00:00,83.0,69.1,29.05,SE,135,10.0,16.0,63,0.00,,,0.00,Weather View 32 v70,2013-06-22 19:00:00,
2013-06-22 15:10:00,84.0,69.0,29.05,SSE,157,0.0,16.0,61,0.00,,,0.00,Weather View 32 v70,2013-06-22 19:10:00,
2013-06-22 15:15:00,85.0,68.0,29.04,SE,135,0.0,16.0,57,0.00,,,0.00,Weather View 32 v70,2013-06-22 19:15:00,
2013-06-22 15:20:00,83.0,67.6,29.04,SSE,157,4.0,16.0,60,0.00,,,0.00,Weather View 32 v70,2013-06-22 19:20:00,
2013-06-22 15:25:00,84.0,68.1,29.05,SE,135,0.0,16.0,59,0.00,,,0.00,Weather View 32 v70,2013-06-22 19:25:00,
2013-06-22 15:30:00,83.0,68.1,29.05,SSE,157,9.0,16.0,61,0.00,,,0.00,Weather View 32 v70,2013-06-22 19:30:00,
2013-06-22 15:35:00,83.0,67.1,29.05,East,90,15.0,16.0,59,0.00,,,0.00,Weather View 32 v70,2013-06-22 19:35:00,
2013-06-22 15:40:00,82.0,67.2,29.05,ESE,112,0.0,16.0,61,0.00,,,0.00,Weather View 32 v70,2013-06-22 19:40:00,
2013-06-22 15:45:00,83.0,67.1,29.05,SSE,157,0.0,16.0,59,0.00,,,0.00,Weather View 32 v70,2013-06-22 19:45:00,
2013-06-22 15:50:00,83.0,67.1,29.05,SSE,157,6.0,16.0,59,0.00,,,0.00,Weather View 32 v70,2013-06-22 19:50:00,
2013-06-22 15:55:00,83.0,67.1,29.05,NE,45,0.0,16.0,59,0.00,,,0.00,Weather View 32 v70,2013-06-22 19:55:00,
2013-06-22 16:05:00,82.0,67.6,29.05,SE,135,6.0,17.0,62,0.00,,,0.00,Weather View 32 v70,2013-06-22 20:05:00,
2013-06-22 16:10:00,82.0,66.7,29.05,SE,135,12.0,17.0,60,0.00,,,0.00,Weather View 32 v70,2013-06-22 20:10:00,
2013-06-22 16:15:00,82.0,68.1,29.05,SSE,157,8.0,17.0,63,0.00,,,0.00,Weather View 32 v70,2013-06-22 20:15:00,
2013-06-22 16:20:00,82.0,68.6,29.05,East,90,2.0,17.0,64,0.00,,,0.00,Weather View 32 v70,2013-06-22 20:20:00,
2013-06-22 16:25:00,82.0,66.7,29.05,SE,135,9.0,17.0,60,0.00,,,0.00,Weather View 32 v70,2013-06-22 20:25:00,
2013-06-22 16:30:00,82.0,66.2,29.05,SE,135,9.0,17.0,59,0.00,,,0.00,Weather View 32 v70,2013-06-22 20:30:00,
2013-06-22 16:35:00,82.0,66.7,29.05,SE,135,4.0,17.0,60,0.00,,,0.00,Weather View 32 v70,2013-06-22 20:35:00,
2013-06-22 16:40:00,82.0,67.2,29.04,ESE,112,6.0,17.0,61,0.00,,,0.00,Weather View 32 v70,2013-06-22 20:40:00,
2013-06-22 16:45:00,82.0,66.7,29.04,ESE,112,3.0,17.0,60,0.00,,,0.00,Weather View 32 v70,2013-06-22 20:45:00,
2013-06-22 16:50:00,82.0,66.2,29.04,ESE,112,7.0,17.0,59,0.00,,,0.00,Weather View 32 v70,2013-06-22 20:50:00,
2013-06-22 17:00:00,82.0,66.7,29.04,SE,135,0.0,17.0,60,0.00,,,0.00,Weather View 32 v70,2013-06-22 21:00:00,
2013-06-22 17:05:00,82.0,66.7,29.04,SSE,157,7.0,14.0,60,0.00,,,0.00,Weather View 32 v70,2013-06-22 21:05:00,
2013-06-22 17:10:00,82.0,65.7,29.04,SE,135,6.0,14.0,58,0.00,,,0.00,Weather View 32 v70,2013-06-22 21:10:00,
2013-06-22 17:15:00,82.0,66.7,29.03,SE,135,4.0,14.0,60,0.00,,,0.00,Weather View 32 v70,2013-06-22 21:15:00,
2013-06-22 17:20:00,82.0,66.7,29.03,SE,135,3.0,14.0,60,0.00,,,0.00,Weather View 32 v70,2013-06-22 21:20:00,
2013-06-22 17:25:00,82.0,66.2,29.03,SE,135,5.0,13.0,59,0.00,,,0.00,Weather View 32 v70,2013-06-22 21:25:00,
2013-06-22 17:30:00,82.0,65.7,29.02,SE,135,0.0,12.0,58,0.00,,,0.00,Weather View 32 v70,2013-06-22 21:30:00,
2013-06-22 17:35:00,83.0,67.1,29.02,SSE,157,0.0,13.0,59,0.00,,,0.00,Weather View 32 v70,2013-06-22 21:35:00,
2013-06-22 17:40:00,83.0,67.1,29.02,SE,135,0.0,13.0,59,0.00,,,0.00,Weather View 32 v70,2013-06-22 21:40:00,
2013-06-22 17:45:00,82.0,66.2,29.02,South,180,0.0,13.0,59,0.00,,,0.00,Weather View 32 v70,2013-06-22 21:45:00,
2013-06-22 17:55:00,82.0,66.7,29.02,SE,135,5.0,13.0,60,0.00,,,0.00,Weather View 32 v70,2013-06-22 21:55:00,
2013-06-22 18:00:00,81.0,66.2,29.01,ESE,112,6.0,13.0,61,0.00,,,0.00,Weather View 32 v70,2013-06-22 22:00:00,
2013-06-22 18:05:00,82.0,68.1,29.01,SSE,157,9.0,13.0,63,0.00,,,0.00,Weather View 32 v70,2013-06-22 22:05:00,
2013-06-22 18:10:00,82.0,66.7,29.01,SSE,157,1.0,14.0,60,0.00,,,0.00,Weather View 32 v70,2013-06-22 22:10:00,
2013-06-22 18:15:00,82.0,67.2,29.01,SSE,157,0.0,14.0,61,0.00,,,0.00,Weather View 32 v70,2013-06-22 22:15:00,
2013-06-22 18:20:00,81.0,66.7,29.01,SSE,157,6.0,14.0,62,0.00,,,0.00,Weather View 32 v70,2013-06-22 22:20:00,
2013-06-22 18:25:00,81.0,66.7,29.01,SE,135,6.0,14.0,62,0.00,,,0.00,Weather View 32 v70,2013-06-22 22:25:00,
2013-06-22 18:30:00,81.0,66.7,29.01,SSE,157,0.0,14.0,62,0.00,,,0.00,Weather View 32 v70,2013-06-22 22:30:00,
2013-06-22 18:35:00,81.0,67.2,29.01,SE,135,1.0,14.0,63,0.00,,,0.00,Weather View 32 v70,2013-06-22 22:35:00,
2013-06-22 18:40:00,81.0,66.7,29.01,SE,135,7.0,14.0,62,0.00,,,0.00,Weather View 32 v70,2013-06-22 22:40:00,
2013-06-22 18:45:00,81.0,66.7,29.01,SE,135,6.0,14.0,62,0.00,,,0.00,Weather View 32 v70,2013-06-22 22:45:00,
2013-06-22 18:50:00,80.0,66.2,29.01,ESE,112,9.0,14.0,63,0.00,,,0.00,Weather View 32 v70,2013-06-22 22:50:00,
2013-06-22 19:00:00,80.0,67.6,29.01,SE,135,8.0,14.0,66,0.00,,,0.00,Weather View 32 v70,2013-06-22 23:00:00,
2013-06-22 19:05:00,79.0,67.1,29.01,SE,135,6.0,14.0,67,0.00,,,0.00,Weather View 32 v70,2013-06-22 23:05:00,
2013-06-22 19:10:00,79.0,67.1,29.01,SSE,157,5.0,14.0,67,0.00,,,0.00,Weather View 32 v70,2013-06-22 23:10:00,
2013-06-22 19:15:00,79.0,67.5,29.01,SE,135,7.0,17.0,68,0.00,,,0.00,Weather View 32 v70,2013-06-22 23:15:00,
2013-06-22 19:20:00,79.0,67.1,29.01,SE,135,5.0,17.0,67,0.00,,,0.00,Weather View 32 v70,2013-06-22 23:20:00,
2013-06-22 19:25:00,79.0,67.5,29.01,SE,135,8.0,17.0,68,0.00,,,0.00,Weather View 32 v70,2013-06-22 23:25:00,
2013-06-22 19:30:00,79.0,67.5,29.01,South,180,0.0,17.0,68,0.00,,,0.00,Weather View 32 v70,2013-06-22 23:30:00,
2013-06-22 19:35:00,79.0,67.5,29.01,SE,135,6.0,17.0,68,0.00,,,0.00,Weather View 32 v70,2013-06-22 23:35:00,
2013-06-22 19:40:00,79.0,67.5,29.01,SE,135,7.0,17.0,68,0.00,,,0.00,Weather View 32 v70,2013-06-22 23:40:00,
2013-06-22 19:45:00,78.0,66.5,29.01,ESE,112,5.0,17.0,68,0.00,,,0.00,Weather View 32 v70,2013-06-22 23:45:00,
2013-06-22 19:50:00,78.0,66.5,29.01,SE,135,4.0,17.0,68,0.00,,,0.00,Weather View 32 v70,2013-06-22 23:50:00,
2013-06-22 20:00:00,78.0,67.4,29.01,SE,135,10.0,17.0,70,0.00,,,0.00,Weather View 32 v70,2013-06-23 00:00:00,
2013-06-22 20:05:00,78.0,67.0,29.01,SSE,157,8.0,17.0,69,0.00,,,0.00,Weather View 32 v70,2013-06-23 00:05:00,
2013-06-22 20:10:00,78.0,67.4,29.02,SE,135,12.0,17.0,70,0.00,,,0.00,Weather View 32 v70,2013-06-23 00:10:00,
2013-06-22 20:15:00,78.0,67.0,29.02,ESE,112,2.0,17.0,69,0.00,,,0.00,Weather View 32 v70,2013-06-23 00:15:00,
2013-06-22 20:20:00,78.0,67.4,29.02,South,180,4.0,17.0,70,0.00,,,0.00,Weather View 32 v70,2013-06-23 00:20:00,
2013-06-22 20:25:00,78.0,67.4,29.03,SE,135,0.0,17.0,70,0.00,,,0.00,Weather View 32 v70,2013-06-23 00:25:00,
2013-06-22 20:30:00,78.0,67.4,29.03,SSE,157,7.0,17.0,70,0.00,,,0.00,Weather View 32 v70,2013-06-23 00:30:00,
2013-06-22 20:35:00,77.0,66.4,29.03,WSW,247,2.0,17.0,70,0.00,,,0.00,Weather View 32 v70,2013-06-23 00:35:00,
2013-06-22 20:40:00,77.0,66.8,29.03,SSE,157,6.0,17.0,71,0.00,,,0.00,Weather View 32 v70,2013-06-23 00:40:00,
2013-06-22 20:45:00,78.0,67.4,29.03,West,270,0.0,17.0,70,0.00,,,0.00,Weather View 32 v70,2013-06-23 00:45:00,
2013-06-22 20:55:00,77.0,66.4,29.03,SE,135,5.0,17.0,70,0.00,,,0.00,Weather View 32 v70,2013-06-23 00:55:00,
2013-06-22 21:00:00,77.0,66.4,29.03,SE,135,4.0,17.0,70,0.00,,,0.00,Weather View 32 v70,2013-06-23 01:00:00,
2013-06-22 21:05:00,77.0,66.4,29.04,SE,135,6.0,17.0,70,0.00,,,0.00,Weather View 32 v70,2013-06-23 01:05:00,
2013-06-22 21:10:00,77.0,66.4,29.04,WNW,292,1.0,14.0,70,0.00,,,0.00,Weather View 32 v70,2013-06-23 01:10:00,
2013-06-22 21:15:00,77.0,66.4,29.04,SE,135,2.0,13.0,70,0.00,,,0.00,Weather View 32 v70,2013-06-23 01:15:00,
2013-06-22 21:20:00,77.0,66.4,29.05,ESE,112,10.0,13.0,70,0.00,,,0.00,Weather View 32 v70,2013-06-23 01:20:00,
2013-06-22 21:25:00,77.0,66.0,29.05,SE,135,2.0,13.0,69,0.00,,,0.00,Weather View 32 v70,2013-06-23 01:25:00,
2013-06-22 21:30:00,77.0,66.4,29.04,SE,135,6.0,15.0,70,0.00,,,0.00,Weather View 32 v70,2013-06-23 01:30:00,
2013-06-22 21:40:00,77.0,66.4,29.05,WSW,247,0.0,15.0,70,0.00,,,0.00,Weather View 32 v70,2013-06-23 01:40:00,
2013-06-22 21:45:00,77.0,67.2,29.05,SE,135,7.0,15.0,72,0.00,,,0.00,Weather View 32 v70,2013-06-23 01:45:00,
2013-06-22 21:50:00,77.0,67.2,29.05,ESE,112,3.0,15.0,72,0.00,,,0.00,Weather View 32 v70,2013-06-23 01:50:00,
2013-06-22 22:00:00,77.0,67.6,29.05,SE,135,0.0,15.0,73,0.00,,,0.00,Weather View 32 v70,2013-06-23 02:00:00,
2013-06-22 22:05:00,76.0,67.1,29.05,SW,225,3.0,15.0,74,0.00,,,0.00,Weather View 32 v70,2013-06-23 02:05:00,
2013-06-22 22:10:00,76.0,67.5,29.06,NE,45,0.0,15.0,75,0.00,,,0.00,Weather View 32 v70,2013-06-23 02:10:00,
2013-06-22 22:15:00,76.0,67.9,29.06,SE,135,1.0,15.0,76,0.00,,,0.00,Weather View 32 v70,2013-06-23 02:15:00,
2013-06-22 22:20:00,76.0,68.2,29.06,SE,135,6.0,15.0,77,0.00,,,0.00,Weather View 32 v70,2013-06-23 02:20:00,
2013-06-22 22:25:00,76.0,68.2,29.07,SSE,157,5.0,17.0,77,0.00,,,0.00,Weather View 32 v70,2013-06-23 02:25:00,
2013-06-22 22:30:00,76.0,68.2,29.07,SE,135,6.0,17.0,77,0.00,,,0.00,Weather View 32 v70,2013-06-23 02:30:00,
2013-06-22 22:35:00,75.0,68.0,29.07,SE,135,11.0,18.0,79,0.00,,,0.00,Weather View 32 v70,2013-06-23 02:35:00,
2013-06-22 22:40:00,75.0,68.0,29.07,ESE,112,6.0,18.0,79,0.00,,,0.00,Weather View 32 v70,2013-06-23 02:40:00,
2013-06-22 22:45:00,75.0,68.4,29.07,South,180,6.0,18.0,80,0.00,,,0.00,Weather View 32 v70,2013-06-23 02:45:00,
2013-06-22 22:50:00,75.0,68.4,29.07,SE,135,9.0,18.0,80,0.00,,,0.00,Weather View 32 v70,2013-06-23 02:50:00,
2013-06-22 23:00:00,75.0,69.5,29.07,SE,135,12.0,18.0,83,0.00,,,0.00,Weather View 32 v70,2013-06-23 03:00:00,
2013-06-22 23:10:00,74.0,68.5,29.07,SW,225,2.0,18.0,83,0.00,,,0.00,Weather View 32 v70,2013-06-23 03:10:00,
2013-06-22 23:15:00,74.0,68.5,29.08,SSE,157,4.0,18.0,83,0.00,,,0.00,Weather View 32 v70,2013-06-23 03:15:00,
2013-06-22 23:20:00,74.0,68.8,29.08,ESE,112,2.0,18.0,84,0.00,,,0.00,Weather View 32 v70,2013-06-23 03:20:00,
2013-06-22 23:25:00,74.0,68.8,29.08,ESE,112,9.0,19.0,84,0.00,,,0.00,Weather View 32 v70,2013-06-23 03:25:00,
2013-06-22 23:30:00,74.0,69.2,29.08,South,180,5.0,19.0,85,0.00,,,0.00,Weather View 32 v70,2013-06-23 03:30:00,
2013-06-22 23:35:00,74.0,69.2,29.08,SSE,157,1.0,19.0,85,0.00,,,0.00,Weather View 32 v70,2013-06-23 03:35:00,
2013-06-22 23:40:00,73.0,68.5,29.08,WSW,247,5.0,19.0,86,0.00,,,0.00,Weather View 32 v70,2013-06-23 03:40:00,
2013-06-22 23:45:00,73.0,68.5,29.08,South,180,0.0,19.0,86,0.00,,,0.00,Weather View 32 v70,2013-06-23 03:45:00,
2013-06-22 23:55:00,73.0,68.9,29.09,South,180,0.0,19.0,87,0.00,,,0.00,Weather View 32 v70,2013-06-23 03:55:00,